createdAt,value
2018-09-27T00:00:19.836Z,81.87
2018-09-27T00:03:23.767Z,83.21
2018-09-27T00:06:27.710Z,82.79
2018-09-27T00:09:31.668Z,83.46
2018-09-27T00:12:35.587Z,83.49
2018-09-27T00:15:39.547Z,84.15
2018-09-27T00:18:43.474Z,83.42
2018-09-27T00:21:47.439Z,83.64
2018-09-27T00:24:51.383Z,84.29
2018-09-27T00:27:55.334Z,83.99
2018-09-27T00:30:59.284Z,84.79
2018-09-27T00:34:03.574Z,84.28
2018-09-27T00:37:07.479Z,83.70
2018-09-27T00:40:11.426Z,84.27
2018-09-27T00:43:15.590Z,83.02
2018-09-27T00:46:19.538Z,85.01
2018-09-27T00:49:23.482Z,84.85
2018-09-27T00:52:27.419Z,83.44
2018-09-27T00:55:31.358Z,84.82
2018-09-27T00:58:35.291Z,83.78
2018-09-27T01:01:39.682Z,84.44
2018-09-27T01:04:43.654Z,84.32
2018-09-27T01:07:47.585Z,84.16
2018-09-27T01:10:51.715Z,84.12
2018-09-27T01:13:55.666Z,84.75
2018-09-27T01:16:59.619Z,84.83
2018-09-27T01:20:03.543Z,83.72
2018-09-27T01:23:07.487Z,83.82
2018-09-27T01:26:11.407Z,83.91
2018-09-27T01:29:15.362Z,84.13
2018-09-27T01:32:19.320Z,83.61
2018-09-27T01:35:23.582Z,83.51
2018-09-27T01:38:27.527Z,83.45
2018-09-27T01:41:31.459Z,84.36
2018-09-27T01:44:35.382Z,83.58
2018-09-27T01:47:39.639Z,83.42
2018-09-27T01:50:43.893Z,84.30
2018-09-27T01:53:47.838Z,83.68
2018-09-27T01:56:51.959Z,83.53
2018-09-27T01:59:55.907Z,83.68
2018-09-27T02:02:59.818Z,84.32
2018-09-27T02:06:03.782Z,83.45
2018-09-27T02:09:08.596Z,83.98
2018-09-27T02:12:12.535Z,83.90
2018-09-27T02:15:17.021Z,83.64
2018-09-27T02:18:20.970Z,83.65
2018-09-27T02:21:24.903Z,83.51
2018-09-27T02:24:28.864Z,83.99
2018-09-27T02:27:32.942Z,83.54
2018-09-27T02:30:37.380Z,83.79
2018-09-27T02:33:41.315Z,83.51
2018-09-27T02:36:45.614Z,84.17
2018-09-27T02:39:49.568Z,84.88
2018-09-27T02:42:53.515Z,84.05
2018-09-27T02:45:57.721Z,84.14
2018-09-27T02:49:02.042Z,85.08
2018-09-27T02:52:06.666Z,84.57
2018-09-27T02:55:10.847Z,84.96
2018-09-27T02:58:14.805Z,84.23
2018-09-27T03:01:18.726Z,84.61
2018-09-27T03:04:22.747Z,84.66
2018-09-27T03:07:26.910Z,85.33
2018-09-27T03:10:31.105Z,85.01
2018-09-27T03:13:35.046Z,84.85
2018-09-27T03:16:39.351Z,85.13
2018-09-27T03:19:43.526Z,84.55
2018-09-27T03:22:47.471Z,85.53
2018-09-27T03:25:51.409Z,84.81
2018-09-27T03:28:55.353Z,85.01
2018-09-27T03:31:59.294Z,85.34
2018-09-27T03:35:03.590Z,86.24
2018-09-27T03:38:08.123Z,85.68
2018-09-27T03:41:12.083Z,86.03
2018-09-27T03:44:16.228Z,86.09
2018-09-27T03:47:20.165Z,86.15
2018-09-27T03:50:24.438Z,85.57
2018-09-27T03:53:28.355Z,85.66
2018-09-27T03:56:32.298Z,85.80
2018-09-27T03:59:36.315Z,85.62
2018-09-27T04:02:40.283Z,85.51
2018-09-27T04:05:44.212Z,86.17
2018-09-27T04:08:48.138Z,86.20
2018-09-27T04:11:52.078Z,86.43
2018-09-27T04:14:56.042Z,86.96
2018-09-27T04:17:59.982Z,86.44
2018-09-27T04:21:03.913Z,86.62
2018-09-27T04:24:07.925Z,85.86
2018-09-27T04:27:12.344Z,87.14
2018-09-27T04:30:16.279Z,85.58
2018-09-27T04:33:20.222Z,86.75
2018-09-27T04:36:24.154Z,85.71
2018-09-27T04:39:28.114Z,87.33
2018-09-27T04:42:32.094Z,86.73
2018-09-27T04:45:36.131Z,86.67
2018-09-27T04:48:40.061Z,87.30
2018-09-27T04:51:44.051Z,86.28
2018-09-27T04:54:48.166Z,87.39
2018-09-27T04:57:52.289Z,87.08
2018-09-27T05:00:56.310Z,87.51
2018-09-27T05:04:00.239Z,88.16
2018-09-27T05:07:04.749Z,87.33
2018-09-27T05:10:08.746Z,87.43
2018-09-27T05:13:12.710Z,87.05
2018-09-27T05:16:16.654Z,88.16
2018-09-27T05:19:20.590Z,87.87
2018-09-27T05:22:24.519Z,88.33
2018-09-27T05:25:28.792Z,87.51
2018-09-27T05:28:32.771Z,88.33
2018-09-27T05:31:36.886Z,87.76
2018-09-27T05:34:40.824Z,88.41
2018-09-27T05:37:44.755Z,88.61
2018-09-27T05:40:48.905Z,87.99
2018-09-27T05:43:52.842Z,88.03
2018-09-27T05:46:56.965Z,87.37
2018-09-27T05:50:00.908Z,88.74
2018-09-27T05:53:05.119Z,88.48
2018-09-27T05:56:09.238Z,87.77
2018-09-27T05:59:13.191Z,88.40
2018-09-27T06:02:17.136Z,88.43
2018-09-27T06:05:21.064Z,88.79
2018-09-27T06:08:25.202Z,89.34
2018-09-27T06:11:29.184Z,88.27
2018-09-27T06:14:33.313Z,88.58
2018-09-27T06:17:37.253Z,89.67
2018-09-27T06:20:41.393Z,88.89
2018-09-27T06:23:45.326Z,88.50
2018-09-27T06:26:49.277Z,88.37
2018-09-27T06:29:53.228Z,89.08
2018-09-27T06:32:57.178Z,89.74
2018-09-27T06:36:01.175Z,89.18
2018-09-27T06:39:07.247Z,88.63
2018-09-27T06:42:11.418Z,88.40
2018-09-27T06:45:15.376Z,88.39
2018-09-27T06:48:19.425Z,89.09
2018-09-27T06:51:23.516Z,88.30
2018-09-27T06:54:27.549Z,88.63
2018-09-27T06:57:31.833Z,88.61
2018-09-27T07:00:36.126Z,89.00
2018-09-27T07:03:40.037Z,89.01
2018-09-27T07:06:43.990Z,89.34
2018-09-27T07:09:47.945Z,88.19
2018-09-27T07:12:51.994Z,89.05
2018-09-27T07:15:56.043Z,89.14
2018-09-27T07:18:59.965Z,89.02
2018-09-27T07:22:03.899Z,89.18
2018-09-27T07:25:07.916Z,88.47
2018-09-27T07:28:12.014Z,88.12
2018-09-27T07:31:15.942Z,88.94
2018-09-27T07:34:20.078Z,87.65
2018-09-27T07:37:24.015Z,87.64
2018-09-27T07:40:27.986Z,87.72
2018-09-27T07:43:32.106Z,87.81
2018-09-27T07:46:36.202Z,87.67
2018-09-27T07:49:40.143Z,87.67
2018-09-27T07:52:44.065Z,87.89
2018-09-27T07:55:47.994Z,86.88
2018-09-27T07:58:51.930Z,87.76
2018-09-27T08:01:56.053Z,87.24
2018-09-27T08:05:00.003Z,86.75
2018-09-27T08:08:04.291Z,86.62
2018-09-27T08:11:08.797Z,87.02
2018-09-27T08:14:12.883Z,86.94
2018-09-27T08:17:16.832Z,87.00
2018-09-27T08:20:21.306Z,87.22
2018-09-27T08:23:25.431Z,86.72
2018-09-27T08:26:29.409Z,86.45
2018-09-27T08:29:33.523Z,86.52
2018-09-27T08:32:37.533Z,85.94
2018-09-27T08:35:41.607Z,85.28
2018-09-27T08:38:45.615Z,85.57
2018-09-27T08:41:49.676Z,85.17
2018-09-27T08:44:53.754Z,85.55
2018-09-27T08:47:57.730Z,85.88
2018-09-27T08:51:01.664Z,84.95
2018-09-27T08:54:05.591Z,85.65
2018-09-27T08:57:09.506Z,85.20
2018-09-27T09:00:13.838Z,85.35
2018-09-27T09:03:17.869Z,84.62
2018-09-27T09:06:22.015Z,84.08
2018-09-27T09:09:26.212Z,84.70
2018-09-27T09:12:30.413Z,84.63
2018-09-27T09:15:34.421Z,84.70
2018-09-27T09:18:38.790Z,84.37
2018-09-27T09:21:42.814Z,84.75
2018-09-27T09:24:46.871Z,84.23
2018-09-27T09:27:50.827Z,84.71
2018-09-27T09:30:54.733Z,84.36
2018-09-27T09:33:58.654Z,84.10
2018-09-27T09:37:02.592Z,84.45
2018-09-27T09:40:06.543Z,83.99
2018-09-27T09:43:10.487Z,84.68
2018-09-27T09:46:15.078Z,85.02
2018-09-27T09:49:19.388Z,84.79
2018-09-27T09:52:23.354Z,84.40
2018-09-27T09:55:27.467Z,84.57
2018-09-27T09:58:31.577Z,84.31
2018-09-27T10:01:35.848Z,84.21
2018-09-27T10:04:39.775Z,83.56
2018-09-27T10:07:43.711Z,83.29
2018-09-27T10:10:47.974Z,83.05
2018-09-27T10:13:51.902Z,82.81
2018-09-27T10:16:55.929Z,83.36
2018-09-27T10:19:59.835Z,82.64
2018-09-27T10:23:03.762Z,83.10
2018-09-27T10:26:07.690Z,81.70
2018-09-27T10:29:11.610Z,82.69
2018-09-27T10:32:15.546Z,82.58
2018-09-27T10:35:19.819Z,81.83
2018-09-27T10:38:23.789Z,81.36
2018-09-27T10:41:27.732Z,82.06
2018-09-27T10:44:31.643Z,82.43
2018-09-27T10:47:35.571Z,81.73
2018-09-27T10:50:39.486Z,82.56
2018-09-27T10:53:43.479Z,80.41
2018-09-27T10:56:47.649Z,81.50
2018-09-27T10:59:51.811Z,81.84
2018-09-27T11:02:55.889Z,80.46
2018-09-27T11:06:00.413Z,80.31
2018-09-27T11:09:07.427Z,80.21
2018-09-27T11:12:11.399Z,80.29
2018-09-27T11:15:15.696Z,80.08
2018-09-27T11:18:19.610Z,80.24
2018-09-27T11:21:23.878Z,80.97
2018-09-27T11:24:27.815Z,80.91
2018-09-27T11:27:31.736Z,80.57
2018-09-27T11:30:35.922Z,80.25
2018-09-27T11:33:39.844Z,79.33
2018-09-27T11:36:43.785Z,79.12
2018-09-27T11:39:47.720Z,79.10
2018-09-27T11:42:51.651Z,79.34
2018-09-27T11:45:55.779Z,79.98
2018-09-27T11:48:59.808Z,79.88
2018-09-27T11:52:04.203Z,79.86
2018-09-27T11:55:08.227Z,79.28
2018-09-27T11:58:12.271Z,80.21
2018-09-27T12:01:16.203Z,79.76
2018-09-27T12:04:20.344Z,79.37
2018-09-27T12:07:24.323Z,78.91
2018-09-27T12:10:28.411Z,79.01
2018-09-27T12:13:32.483Z,79.18
2018-09-27T12:16:36.527Z,78.89
2018-09-27T12:19:41.066Z,78.36
2018-09-27T12:22:45.130Z,78.17
2018-09-27T12:25:49.392Z,78.74
2018-09-27T12:28:53.319Z,78.18
2018-09-27T12:31:57.259Z,78.11
2018-09-27T12:35:01.184Z,78.55
2018-09-27T12:38:05.111Z,77.90
2018-09-27T12:41:09.034Z,78.77
2018-09-27T12:44:12.974Z,78.60
2018-09-27T12:47:16.934Z,78.27
2018-09-27T12:50:20.866Z,79.20
2018-09-27T12:53:25.141Z,78.27
2018-09-27T12:56:29.215Z,78.55
2018-09-27T12:59:33.137Z,78.54
2018-09-27T13:02:37.088Z,77.55
2018-09-27T13:05:41.244Z,77.98
2018-09-27T13:08:45.406Z,78.19
2018-09-27T13:11:49.588Z,78.08
2018-09-27T13:14:53.692Z,77.78
2018-09-27T13:17:57.818Z,78.53
2018-09-27T13:21:01.810Z,78.27
2018-09-27T13:24:05.765Z,78.03
2018-09-27T13:27:10.360Z,77.71
2018-09-27T13:30:14.450Z,77.21
2018-09-27T13:33:18.854Z,77.46
2018-09-27T13:36:22.792Z,78.07
2018-09-27T13:39:26.726Z,76.62
2018-09-27T13:42:30.778Z,76.88
2018-09-27T13:45:34.710Z,76.98
2018-09-27T13:48:38.653Z,77.32
2018-09-27T13:51:42.579Z,76.80
2018-09-27T13:54:46.518Z,77.71
2018-09-27T13:57:50.454Z,77.20
2018-09-27T14:00:54.443Z,77.08
2018-09-27T14:03:58.540Z,76.66
2018-09-27T14:07:02.786Z,76.38
2018-09-27T14:10:06.753Z,76.46
2018-09-27T14:13:10.698Z,76.54
2018-09-27T14:16:14.621Z,76.87
2018-09-27T14:19:18.860Z,76.65
2018-09-27T14:22:22.798Z,76.48
2018-09-27T14:25:26.743Z,76.71
2018-09-27T14:28:30.691Z,76.21
2018-09-27T14:31:34.770Z,76.61
2018-09-27T14:34:38.695Z,76.37
2018-09-27T14:37:42.630Z,77.04
2018-09-27T14:40:46.620Z,76.58
2018-09-27T14:43:50.707Z,76.47
2018-09-27T14:46:54.645Z,77.18
2018-09-27T14:49:58.646Z,77.16
2018-09-27T14:53:02.800Z,77.09
2018-09-27T14:56:06.819Z,77.72
2018-09-27T14:59:10.902Z,77.14
2018-09-27T15:02:14.939Z,76.97
2018-09-27T15:05:19.027Z,76.77
2018-09-27T15:08:22.999Z,76.69
2018-09-27T15:11:26.955Z,76.80
2018-09-27T15:14:30.968Z,76.79
2018-09-27T15:17:35.187Z,77.61
2018-09-27T15:20:39.170Z,76.61
2018-09-27T15:23:43.147Z,77.18
2018-09-27T15:26:47.434Z,77.80
2018-09-27T15:29:51.374Z,77.66
2018-09-27T15:32:55.665Z,77.12
2018-09-27T15:35:59.615Z,77.89
2018-09-27T15:39:05.090Z,77.69
2018-09-27T15:42:09.349Z,77.29
2018-09-27T15:45:13.462Z,78.17
2018-09-27T15:48:17.730Z,78.44
2018-09-27T15:51:21.715Z,78.00
2018-09-27T15:54:25.979Z,78.09
2018-09-27T15:57:30.231Z,78.14
2018-09-27T16:00:34.155Z,77.84
2018-09-27T16:03:38.419Z,78.40
2018-09-27T16:06:42.399Z,78.40
2018-09-27T16:09:46.506Z,78.43
2018-09-27T16:12:50.479Z,78.19
2018-09-27T16:15:54.405Z,77.51
2018-09-27T16:18:58.332Z,78.34
2018-09-27T16:22:02.294Z,78.77
2018-09-27T16:25:06.785Z,78.37
2018-09-27T16:28:10.694Z,78.79
2018-09-27T16:31:14.818Z,78.39
2018-09-27T16:34:18.764Z,78.92
2018-09-27T16:37:23.231Z,77.63
2018-09-27T16:40:27.192Z,78.34
2018-09-27T16:43:31.320Z,78.82
2018-09-27T16:46:35.252Z,78.70
2018-09-27T16:49:39.174Z,78.35
2018-09-27T16:52:43.114Z,79.79
2018-09-27T16:55:47.047Z,81.37
2018-09-27T16:58:50.983Z,81.72
2018-09-27T17:01:55.257Z,82.50
2018-09-27T17:04:59.386Z,83.58
2018-09-27T17:08:03.317Z,84.20
2018-09-27T17:11:09.160Z,83.10
2018-09-27T17:14:13.274Z,82.63
2018-09-27T17:17:17.247Z,84.61
2018-09-27T17:20:21.199Z,84.57
2018-09-27T17:23:25.170Z,83.95
2018-09-27T17:26:29.282Z,84.48
2018-09-27T17:29:33.242Z,83.76
2018-09-27T17:32:37.357Z,84.89
2018-09-27T17:35:41.329Z,85.67
2018-09-27T17:38:45.431Z,84.03
2018-09-27T17:41:49.371Z,84.44
2018-09-27T17:44:53.323Z,84.18
2018-09-27T17:47:57.256Z,85.10
2018-09-27T17:51:01.202Z,85.43
2018-09-27T17:54:05.139Z,85.48
2018-09-27T17:57:09.102Z,84.24
2018-09-27T18:00:13.047Z,85.26
2018-09-27T18:03:16.985Z,85.26
2018-09-27T18:06:20.952Z,85.11
2018-09-27T18:09:24.874Z,84.29
2018-09-27T18:12:28.814Z,84.37
2018-09-27T18:15:32.760Z,83.76
2018-09-27T18:18:36.700Z,84.46
2018-09-27T18:21:40.772Z,83.55
2018-09-27T18:24:44.995Z,84.43
2018-09-27T18:27:48.921Z,83.79
2018-09-27T18:30:52.875Z,83.87
2018-09-27T18:33:56.834Z,83.33
2018-09-27T18:37:00.781Z,83.61
2018-09-27T18:40:05.264Z,83.22
2018-09-27T18:43:09.619Z,83.59
2018-09-27T18:46:14.095Z,83.69
2018-09-27T18:49:18.027Z,83.77
2018-09-27T18:52:21.963Z,83.15
2018-09-27T18:55:26.099Z,83.57
2018-09-27T18:58:30.046Z,84.28
2018-09-27T19:01:34.006Z,84.28
2018-09-27T19:04:37.980Z,84.36
2018-09-27T19:07:41.934Z,84.77
2018-09-27T19:10:45.877Z,84.63
2018-09-27T19:13:49.841Z,84.37
2018-09-27T19:16:54.138Z,85.36
2018-09-27T19:19:58.173Z,84.90
2018-09-27T19:23:02.463Z,84.85
2018-09-27T19:26:07.229Z,84.56
2018-09-27T19:29:11.510Z,85.15
2018-09-27T19:32:15.459Z,85.02
2018-09-27T19:35:19.419Z,85.44
2018-09-27T19:38:23.346Z,85.05
2018-09-27T19:41:27.295Z,85.78
2018-09-27T19:44:31.486Z,86.16
2018-09-27T19:47:35.434Z,86.03
2018-09-27T19:50:39.369Z,85.71
2018-09-27T19:53:43.311Z,85.59
2018-09-27T19:56:47.260Z,85.48
2018-09-27T19:59:51.200Z,86.52
2018-09-27T20:02:55.139Z,85.87
2018-09-27T20:05:59.074Z,85.80
2018-09-27T20:09:03.242Z,86.73
2018-09-27T20:12:07.176Z,86.50
2018-09-27T20:15:11.122Z,86.66
2018-09-27T20:18:15.060Z,85.62
2018-09-27T20:21:19.322Z,86.54
2018-09-27T20:24:23.262Z,86.46
2018-09-27T20:27:27.204Z,86.48
2018-09-27T20:30:31.678Z,87.97
2018-09-27T20:33:35.661Z,87.10
2018-09-27T20:36:39.608Z,86.65
2018-09-27T20:39:43.551Z,87.13
2018-09-27T20:42:47.495Z,86.86
2018-09-27T20:45:51.413Z,86.46
2018-09-27T20:48:55.356Z,86.52
2018-09-27T20:51:59.286Z,87.29
2018-09-27T20:55:03.266Z,87.45
2018-09-27T20:58:07.538Z,87.49
2018-09-27T21:01:11.474Z,86.54
2018-09-27T21:04:15.417Z,86.14
2018-09-27T21:07:19.553Z,86.62
2018-09-27T21:10:23.509Z,86.67
2018-09-27T21:13:27.441Z,86.11
2018-09-27T21:16:31.366Z,87.26
2018-09-27T21:19:35.312Z,86.42
2018-09-27T21:22:39.555Z,86.51
2018-09-27T21:25:43.514Z,87.02
2018-09-27T21:28:47.438Z,86.40
2018-09-27T21:31:51.506Z,86.42
2018-09-27T21:34:55.468Z,85.92
2018-09-27T21:37:59.399Z,85.87
2018-09-27T21:41:03.339Z,86.28
2018-09-27T21:44:07.307Z,86.19
2018-09-27T21:47:11.229Z,85.39
2018-09-27T21:50:15.348Z,86.33
2018-09-27T21:53:19.378Z,85.89
2018-09-27T21:56:23.339Z,86.30
2018-09-27T21:59:27.273Z,86.68
2018-09-27T22:02:31.205Z,85.89
2018-09-27T22:05:35.143Z,86.19
2018-09-27T22:08:39.058Z,86.88
2018-09-27T22:11:43.065Z,86.34
2018-09-27T22:14:47.011Z,86.42
2018-09-27T22:17:50.992Z,86.80
2018-09-27T22:20:55.215Z,87.06
2018-09-27T22:23:59.226Z,88.46
2018-09-27T22:27:03.256Z,88.13
2018-09-27T22:30:08.056Z,89.01
2018-09-27T22:33:12.002Z,88.50
2018-09-27T22:36:15.934Z,89.53
2018-09-27T22:39:20.215Z,89.36
2018-09-27T22:42:24.130Z,88.61
2018-09-27T22:45:28.107Z,90.71
2018-09-27T22:48:32.059Z,89.34
2018-09-27T22:51:36.030Z,89.99
2018-09-27T22:54:39.983Z,90.09
2018-09-27T22:57:43.915Z,91.33
2018-09-27T23:00:47.870Z,91.80
2018-09-27T23:03:51.819Z,91.58
2018-09-27T23:06:55.841Z,92.29
2018-09-27T23:09:59.871Z,91.48
2018-09-27T23:13:03.891Z,91.25
2018-09-27T23:16:07.969Z,91.47
2018-09-27T23:19:12.357Z,91.43
2018-09-27T23:22:16.599Z,91.53
2018-09-27T23:25:20.877Z,91.57
2018-09-27T23:28:25.120Z,91.63
2018-09-27T23:31:29.464Z,91.32
2018-09-27T23:34:33.768Z,91.59
2018-09-27T23:37:38.654Z,90.83
2018-09-27T23:40:43.199Z,89.82
2018-09-27T23:43:47.383Z,90.17
2018-09-27T23:46:51.515Z,89.62
2018-09-27T23:49:55.730Z,89.39
2018-09-27T23:52:59.869Z,88.85
2018-09-27T23:56:04.201Z,89.23
2018-09-27T23:59:08.421Z,88.77
